createdAt,value
2023-03-12T00:00:10.707Z,6.10
2023-03-12T00:03:02.794Z,5.80
2023-03-12T00:05:32.761Z,3.60
2023-03-12T00:08:02.772Z,7.00
2023-03-12T00:10:31.398Z,8.00
2023-03-12T00:13:03.012Z,7.60
2023-03-12T00:15:35.384Z,6.70
2023-03-12T00:18:05.224Z,6.20
2023-03-12T00:20:33.865Z,5.60
2023-03-12T00:23:06.923Z,5.40
2023-03-12T00:25:35.960Z,4.60
2023-03-12T00:28:07.459Z,5.50
2023-03-12T00:30:36.248Z,5.20
2023-03-12T00:33:06.595Z,5.50
2023-03-12T00:35:35.414Z,5.10
2023-03-12T00:38:05.254Z,5.60
2023-03-12T00:40:38.764Z,6.10
2023-03-12T00:43:07.743Z,6.70
2023-03-12T00:45:36.540Z,6.40
2023-03-12T00:48:07.364Z,6.50
2023-03-12T00:50:36.047Z,6.10
2023-03-12T00:53:10.073Z,5.60
2023-03-12T00:55:40.912Z,6.70
2023-03-12T00:58:09.888Z,5.70
2023-03-12T01:00:39.225Z,6.50
2023-03-12T01:03:08.366Z,5.40
2023-03-12T01:05:40.087Z,5.70
2023-03-12T01:08:10.813Z,5.60
2023-03-12T01:10:42.741Z,7.10
2023-03-12T01:13:12.055Z,5.80
2023-03-12T01:15:40.722Z,6.70
2023-03-12T01:18:09.640Z,6.10
2023-03-12T01:20:40.312Z,5.60
2023-03-12T01:23:09.693Z,6.10
2023-03-12T01:25:42.636Z,4.70
2023-03-12T01:28:12.005Z,4.80
2023-03-12T01:30:40.729Z,5.10
2023-03-12T01:33:10.883Z,5.90
2023-03-12T01:35:41.403Z,6.00
2023-03-12T01:38:14.306Z,5.40
2023-03-12T01:40:45.443Z,4.90
2023-03-12T01:43:27.147Z,5.70
2023-03-12T01:46:31.358Z,6.20
2023-03-12T01:49:08.958Z,6.10
2023-03-12T01:51:42.745Z,6.10
2023-03-12T01:54:20.218Z,5.90
2023-03-12T01:56:52.627Z,6.50
2023-03-12T01:59:28.794Z,5.70
2023-03-12T02:01:58.218Z,4.70
2023-03-12T02:04:28.880Z,5.60
2023-03-12T02:07:07.092Z,4.80
2023-03-12T02:09:41.369Z,4.70
2023-03-12T02:12:10.960Z,5.60
2023-03-12T02:14:40.633Z,4.00
2023-03-12T02:17:10.981Z,4.10
2023-03-12T02:19:51.626Z,4.10
2023-03-12T02:22:21.647Z,5.00
2023-03-12T02:24:56.467Z,4.90
2023-03-12T02:27:25.749Z,4.30
2023-03-12T02:29:54.962Z,5.70
2023-03-12T02:32:29.255Z,5.20
2023-03-12T02:35:02.228Z,4.60
2023-03-12T02:37:31.028Z,5.20
2023-03-12T02:40:10.214Z,4.10
2023-03-12T02:42:40.186Z,4.40
2023-03-12T02:45:13.317Z,3.90
2023-03-12T02:47:42.090Z,4.00
2023-03-12T02:50:12.012Z,3.30
2023-03-12T02:52:40.700Z,3.00
2023-03-12T02:55:10.711Z,3.30
2023-03-12T02:57:39.882Z,4.30
2023-03-12T03:00:17.198Z,4.60
2023-03-12T03:02:49.787Z,4.20
2023-03-12T03:05:19.986Z,4.00
2023-03-12T03:07:52.464Z,4.60
2023-03-12T03:10:21.572Z,4.30
2023-03-12T03:12:52.891Z,3.90
2023-03-12T03:15:26.818Z,3.40
2023-03-12T03:17:55.948Z,3.70
2023-03-12T03:20:26.490Z,4.00
2023-03-12T03:22:58.094Z,3.70
2023-03-12T03:25:26.990Z,4.00
2023-03-12T03:27:55.695Z,3.70
2023-03-12T03:30:28.405Z,4.00
2023-03-12T03:32:57.190Z,2.80
2023-03-12T03:35:26.088Z,3.60
2023-03-12T03:37:54.952Z,4.10
2023-03-12T03:40:27.096Z,4.20
2023-03-12T03:42:55.888Z,2.60
2023-03-12T03:45:25.419Z,4.10
2023-03-12T03:47:55.548Z,3.10
2023-03-12T03:50:25.568Z,4.40
2023-03-12T03:52:54.360Z,4.40
2023-03-12T03:55:24.413Z,4.00
2023-03-12T03:57:53.285Z,4.10
2023-03-12T04:00:23.580Z,4.80
2023-03-12T04:02:54.874Z,4.10
2023-03-12T04:05:25.552Z,4.20
2023-03-12T04:08:02.505Z,4.00
2023-03-12T04:10:32.456Z,4.20
2023-03-12T04:13:06.029Z,3.20
2023-03-12T04:15:35.982Z,4.30
2023-03-12T04:18:05.269Z,4.30
2023-03-12T04:20:34.319Z,3.50
2023-03-12T04:23:06.653Z,3.60
2023-03-12T04:25:36.367Z,4.20
2023-03-12T04:28:08.738Z,4.10
2023-03-12T04:30:40.253Z,4.80
2023-03-12T04:33:09.425Z,3.80
2023-03-12T04:35:46.872Z,4.10
2023-03-12T04:38:15.755Z,4.50
2023-03-12T04:40:47.691Z,3.80
2023-03-12T04:43:20.462Z,2.60
2023-03-12T04:45:50.534Z,3.80
2023-03-12T04:48:19.543Z,3.30
2023-03-12T04:50:50.852Z,3.40
2023-03-12T04:53:22.545Z,3.50
2023-03-12T04:55:54.674Z,3.30
2023-03-12T04:58:23.865Z,4.00
2023-03-12T05:00:56.480Z,3.60
2023-03-12T05:03:25.474Z,3.40
2023-03-12T05:05:57.362Z,3.90
2023-03-12T05:08:26.961Z,3.70
2023-03-12T05:10:59.103Z,3.80
2023-03-12T05:13:35.980Z,3.60
2023-03-12T05:16:12.692Z,3.60
2023-03-12T05:18:42.993Z,3.40
2023-03-12T05:21:15.967Z,4.10
2023-03-12T05:23:46.081Z,2.90
2023-03-12T05:26:21.866Z,3.30
2023-03-12T05:28:52.241Z,2.40
2023-03-12T05:31:21.726Z,3.30
2023-03-12T05:33:52.994Z,3.50
2023-03-12T05:36:22.476Z,4.20
2023-03-12T05:38:52.823Z,4.00
2023-03-12T05:41:23.755Z,2.60
2023-03-12T05:43:57.823Z,3.30
2023-03-12T05:46:30.379Z,3.20
2023-03-12T05:49:00.283Z,3.30
2023-03-12T05:51:30.598Z,3.10
2023-03-12T05:54:02.598Z,2.70
2023-03-12T05:56:32.907Z,3.00
2023-03-12T05:59:06.329Z,3.00
2023-03-12T06:01:36.069Z,2.70
2023-03-12T06:04:07.264Z,3.30
2023-03-12T06:06:37.742Z,3.40
2023-03-12T06:09:06.863Z,2.90
2023-03-12T06:11:36.057Z,2.90
2023-03-12T06:14:06.393Z,3.00
2023-03-12T06:16:36.922Z,2.20
2023-03-12T06:19:07.439Z,3.30
2023-03-12T06:21:36.733Z,2.60
2023-03-12T06:24:08.975Z,2.80
2023-03-12T06:26:53.041Z,2.80
2023-03-12T06:29:22.688Z,2.70
2023-03-12T06:31:53.646Z,3.30
2023-03-12T06:34:23.091Z,4.40
2023-03-12T06:36:52.176Z,5.80
2023-03-12T06:39:23.153Z,8.30
2023-03-12T06:41:51.980Z,6.70
2023-03-12T06:44:25.237Z,6.30
2023-03-12T06:46:53.925Z,5.40
2023-03-12T06:49:23.828Z,4.60
2023-03-12T06:51:53.314Z,5.30
2023-03-12T06:54:23.181Z,3.80
2023-03-12T06:56:52.544Z,5.70
2023-03-12T06:59:21.535Z,4.80
2023-03-12T07:01:53.206Z,3.80
2023-03-12T07:04:24.473Z,4.10
2023-03-12T07:06:53.261Z,3.20
2023-03-12T07:09:22.074Z,3.90
2023-03-12T07:11:51.253Z,3.80
2023-03-12T07:14:20.840Z,4.00
2023-03-12T07:16:52.724Z,2.80
2023-03-12T07:19:21.559Z,3.20
2023-03-12T07:21:50.509Z,4.80
2023-03-12T07:24:19.263Z,5.20
2023-03-12T07:26:48.455Z,5.00
2023-03-12T07:29:19.132Z,5.40
2023-03-12T07:31:48.238Z,4.80
2023-03-12T07:34:17.783Z,4.40
2023-03-12T07:36:47.472Z,4.20
2023-03-12T07:39:19.139Z,2.50
2023-03-12T07:41:48.578Z,3.70
2023-03-12T07:44:17.953Z,3.40
2023-03-12T07:46:50.398Z,3.00
2023-03-12T07:49:20.678Z,3.10
2023-03-12T07:51:52.386Z,2.40
2023-03-12T07:54:26.186Z,2.80
2023-03-12T07:56:59.080Z,2.90
2023-03-12T07:59:28.575Z,3.00
2023-03-12T08:01:58.607Z,3.00
2023-03-12T08:04:28.133Z,3.00
2023-03-12T08:06:57.023Z,2.30
2023-03-12T08:09:26.023Z,2.30
2023-03-12T08:11:57.316Z,2.50
2023-03-12T08:14:26.064Z,2.00
2023-03-12T08:16:54.739Z,2.50
2023-03-12T08:19:24.141Z,2.40
2023-03-12T08:21:53.442Z,2.70
2023-03-12T08:24:24.099Z,2.70
2023-03-12T08:26:52.784Z,2.10
2023-03-12T08:29:21.542Z,2.50
2023-03-12T08:32:03.813Z,2.80
2023-03-12T08:34:34.057Z,1.90
2023-03-12T08:37:07.223Z,2.20
2023-03-12T08:39:36.299Z,2.70
2023-03-12T08:42:07.236Z,2.60
2023-03-12T08:44:36.130Z,2.50
2023-03-12T08:47:06.742Z,3.40
2023-03-12T08:49:35.754Z,2.90
2023-03-12T08:52:05.329Z,2.40
2023-03-12T08:54:34.380Z,1.70
2023-03-12T08:57:04.293Z,2.30
2023-03-12T08:59:36.104Z,2.10
2023-03-12T09:02:04.896Z,1.80
2023-03-12T09:04:33.855Z,1.60
2023-03-12T09:07:04.153Z,1.10
2023-03-12T09:09:33.618Z,1.70
2023-03-12T09:12:02.814Z,0.90
2023-03-12T09:15:02.091Z,1.00
2023-03-12T09:17:23.319Z,1.10
2023-03-12T09:19:52.377Z,0.90
2023-03-12T09:22:21.255Z,0.90
2023-03-12T09:24:50.633Z,1.30
2023-03-12T09:27:19.340Z,1.00
2023-03-12T09:29:59.566Z,1.30
2023-03-12T09:32:30.151Z,1.60
2023-03-12T09:34:59.141Z,1.30
2023-03-12T09:37:27.954Z,1.80
2023-03-12T09:39:57.382Z,1.90
2023-03-12T09:42:37.337Z,2.10
2023-03-12T09:45:12.959Z,2.00
2023-03-12T09:47:50.802Z,2.90
2023-03-12T09:50:26.383Z,2.90
2023-03-12T09:53:02.604Z,2.60
2023-03-12T09:55:37.929Z,1.80
2023-03-12T09:58:12.775Z,2.10
2023-03-12T10:00:41.894Z,1.80
2023-03-12T10:03:44.350Z,2.00
2023-03-12T10:06:16.424Z,1.40
2023-03-12T10:08:57.929Z,1.50
2023-03-12T10:11:38.536Z,2.00
2023-03-12T10:14:24.262Z,2.20
2023-03-12T10:17:06.978Z,1.50
2023-03-12T10:20:05.532Z,1.50
2023-03-12T10:22:52.582Z,1.90
2023-03-12T10:25:30.002Z,1.10
2023-03-12T10:28:11.458Z,1.00
2023-03-12T10:30:46.221Z,1.20
2023-03-12T10:33:19.999Z,1.40
2023-03-12T10:35:50.196Z,1.20
2023-03-12T10:38:33.038Z,1.10
2023-03-12T10:41:14.117Z,1.40
2023-03-12T10:43:45.253Z,1.30
2023-03-12T10:46:48.429Z,1.10
2023-03-12T10:49:31.240Z,1.20
2023-03-12T10:52:06.143Z,1.30
2023-03-12T10:54:39.967Z,2.20
2023-03-12T10:57:09.118Z,2.40
2023-03-12T10:59:42.486Z,3.20
2023-03-12T11:02:33.770Z,2.80
2023-03-12T11:05:18.577Z,1.40
2023-03-12T11:07:52.234Z,1.40
2023-03-12T11:10:25.161Z,3.00
2023-03-12T11:13:00.378Z,2.20
2023-03-12T11:15:41.230Z,2.20
2023-03-12T11:18:34.903Z,1.80
2023-03-12T11:21:19.889Z,2.30
2023-03-12T11:24:10.494Z,2.40
2023-03-12T11:26:48.219Z,2.30
2023-03-12T11:29:26.021Z,2.30
2023-03-12T11:32:03.682Z,3.40
2023-03-12T11:34:36.688Z,2.10
2023-03-12T11:37:12.440Z,1.70
2023-03-12T11:39:57.632Z,1.40
2023-03-12T11:42:39.598Z,1.90
2023-03-12T11:45:18.897Z,1.40
2023-03-12T11:48:03.510Z,0.90
2023-03-12T11:50:51.124Z,1.90
2023-03-12T11:53:33.347Z,1.60
2023-03-12T11:56:18.082Z,1.20
2023-03-12T11:58:59.860Z,1.50
2023-03-12T12:01:40.247Z,1.10
2023-03-12T12:04:39.659Z,1.30
2023-03-12T12:07:19.399Z,0.90
2023-03-12T12:09:57.921Z,1.50
2023-03-12T12:12:42.884Z,1.80
2023-03-12T12:15:24.110Z,1.80
2023-03-12T12:18:02.993Z,1.60
2023-03-12T12:20:43.913Z,1.40
2023-03-12T12:23:28.211Z,1.30
2023-03-12T12:26:05.967Z,0.80
2023-03-12T12:28:59.758Z,1.10
2023-03-12T12:31:40.825Z,1.30
2023-03-12T12:34:30.599Z,1.40
2023-03-12T12:37:29.034Z,1.60
2023-03-12T12:40:11.247Z,1.60
2023-03-12T12:42:53.162Z,1.90
2023-03-12T12:45:24.738Z,2.90
2023-03-12T12:47:58.708Z,1.90
2023-03-12T12:50:33.015Z,1.40
2023-03-12T12:53:12.575Z,1.10
2023-03-12T12:55:50.335Z,1.70
2023-03-12T12:58:26.790Z,1.70
2023-03-12T13:00:59.299Z,1.80
2023-03-12T13:03:30.241Z,2.20
2023-03-12T13:06:05.789Z,2.50
2023-03-12T13:08:59.251Z,1.70
2023-03-12T13:11:39.420Z,1.00
2023-03-12T13:14:38.783Z,1.70
2023-03-12T13:17:20.615Z,1.50
2023-03-12T13:20:00.658Z,2.00
2023-03-12T13:22:58.438Z,0.90
2023-03-12T13:25:45.772Z,1.20
2023-03-12T13:28:40.080Z,1.10
2023-03-12T13:31:40.204Z,2.40
2023-03-12T13:34:45.588Z,2.20
2023-03-12T13:37:59.754Z,1.80
2023-03-12T13:40:52.424Z,1.40
2023-03-12T13:43:47.653Z,1.20
2023-03-12T13:46:39.130Z,1.40
2023-03-12T13:49:15.035Z,1.00
2023-03-12T13:51:56.541Z,1.80
2023-03-12T13:54:29.492Z,1.70
2023-03-12T13:57:02.877Z,1.60
2023-03-12T13:59:32.673Z,1.60
2023-03-12T14:02:15.088Z,2.20
2023-03-12T14:04:44.395Z,2.80
2023-03-12T14:07:45.347Z,2.00
2023-03-12T14:10:29.524Z,1.90
2023-03-12T14:13:12.627Z,1.40
2023-03-12T14:15:50.639Z,1.40
2023-03-12T14:18:23.530Z,1.70
2023-03-12T14:20:55.805Z,1.80
2023-03-12T14:23:29.036Z,1.90
2023-03-12T14:26:04.248Z,1.70
2023-03-12T14:28:41.551Z,1.60
2023-03-12T14:31:16.623Z,6.90
2023-03-12T14:33:54.891Z,2.50
2023-03-12T14:36:27.772Z,3.50
2023-03-12T14:39:08.920Z,2.80
2023-03-12T14:41:45.787Z,2.60
2023-03-12T14:44:23.417Z,1.70
2023-03-12T14:46:59.122Z,1.80
2023-03-12T14:49:28.007Z,1.70
2023-03-12T14:51:57.238Z,2.40
2023-03-12T14:54:28.274Z,2.60
2023-03-12T14:56:57.103Z,3.90
2023-03-12T14:59:28.778Z,2.20
2023-03-12T15:02:03.063Z,1.40
2023-03-12T15:04:34.996Z,2.10
2023-03-12T15:07:09.821Z,4.00
2023-03-12T15:09:40.955Z,4.10
2023-03-12T15:12:22.141Z,2.00
2023-03-12T15:14:54.011Z,2.30
2023-03-12T15:17:27.338Z,2.90
2023-03-12T15:19:57.119Z,1.90
2023-03-12T15:22:27.666Z,2.40
2023-03-12T15:25:04.865Z,2.90
2023-03-12T15:27:34.985Z,2.80
2023-03-12T15:30:26.071Z,2.20
2023-03-12T15:33:10.122Z,2.60
2023-03-12T15:35:43.152Z,1.80
2023-03-12T15:38:19.969Z,2.40
2023-03-12T15:40:55.422Z,2.20
2023-03-12T15:43:25.994Z,0.90
2023-03-12T15:46:26.549Z,2.70
2023-03-12T15:48:57.522Z,3.00
2023-03-12T15:51:35.142Z,2.70
2023-03-12T15:54:21.966Z,3.70
2023-03-12T15:56:55.135Z,2.40
2023-03-12T15:59:26.783Z,7.10
2023-03-12T16:01:56.727Z,4.30
2023-03-12T16:04:25.900Z,2.80
2023-03-12T16:06:54.949Z,2.20
2023-03-12T16:09:29.850Z,4.10
2023-03-12T16:11:59.017Z,6.50
2023-03-12T16:14:30.625Z,16.80
2023-03-12T16:16:59.773Z,12.80
2023-03-12T16:19:33.691Z,9.90
2023-03-12T16:22:05.239Z,15.90
2023-03-12T16:24:34.442Z,10.90
2023-03-12T16:27:06.635Z,8.70
2023-03-12T16:29:37.946Z,11.80
2023-03-12T16:32:13.844Z,8.10
2023-03-12T16:34:43.152Z,13.10
2023-03-12T16:37:12.740Z,17.20
2023-03-12T16:39:45.715Z,14.40
2023-03-12T16:42:18.100Z,19.00
2023-03-12T16:44:47.694Z,21.90
2023-03-12T16:47:16.862Z,23.30
2023-03-12T16:49:45.807Z,22.00
2023-03-12T16:52:21.118Z,26.50
2023-03-12T16:54:51.309Z,19.90
2023-03-12T16:57:26.052Z,16.30
2023-03-12T16:59:55.599Z,16.80
2023-03-12T17:02:25.124Z,15.80
2023-03-12T17:04:54.370Z,19.40
2023-03-12T17:07:24.169Z,14.90
2023-03-12T17:09:53.567Z,8.40
2023-03-12T17:12:29.078Z,5.60
2023-03-12T17:14:59.547Z,6.40
2023-03-12T17:17:29.244Z,4.40
2023-03-12T17:20:00.468Z,4.50
2023-03-12T17:22:30.637Z,4.60
2023-03-12T17:24:59.895Z,4.10
2023-03-12T17:27:29.418Z,4.60
2023-03-12T17:29:58.764Z,6.50
2023-03-12T17:32:29.800Z,6.40
2023-03-12T17:35:02.645Z,5.40
2023-03-12T17:37:31.573Z,5.40
2023-03-12T17:40:07.216Z,4.70
2023-03-12T17:42:37.463Z,6.00
2023-03-12T17:45:09.236Z,5.90
2023-03-12T17:47:39.455Z,6.00
2023-03-12T17:50:10.510Z,5.80
2023-03-12T17:52:39.599Z,6.40
2023-03-12T17:55:11.611Z,6.40
2023-03-12T17:57:42.232Z,6.20
2023-03-12T18:00:14.085Z,5.30
2023-03-12T18:02:44.742Z,6.60
2023-03-12T18:05:14.936Z,5.70
2023-03-12T18:07:52.693Z,5.80
2023-03-12T18:10:22.612Z,5.70
2023-03-12T18:12:51.901Z,6.10
2023-03-12T18:15:24.843Z,13.70
2023-03-12T18:17:56.067Z,36.00
2023-03-12T18:20:37.450Z,25.50
2023-03-12T18:23:07.425Z,21.70
2023-03-12T18:25:38.038Z,25.10
2023-03-12T18:28:07.749Z,14.70
2023-03-12T18:30:36.678Z,31.40
2023-03-12T18:33:05.682Z,19.50
2023-03-12T18:35:34.467Z,15.10
2023-03-12T18:38:06.383Z,15.80
2023-03-12T18:40:35.256Z,11.20
2023-03-12T18:43:05.299Z,9.40
2023-03-12T18:45:35.376Z,8.90
2023-03-12T18:48:05.931Z,8.20
2023-03-12T18:50:34.546Z,7.60
2023-03-12T18:53:05.192Z,5.90
2023-03-12T18:55:33.865Z,4.50
2023-03-12T18:58:05.135Z,5.30
2023-03-12T19:00:34.598Z,6.40
2023-03-12T19:03:06.210Z,6.20
2023-03-12T19:05:35.189Z,5.20
2023-03-12T19:08:06.353Z,6.00
2023-03-12T19:10:35.054Z,5.60
2023-03-12T19:13:04.688Z,6.30
2023-03-12T19:15:36.669Z,5.30
2023-03-12T19:18:06.586Z,5.50
2023-03-12T19:20:35.981Z,4.70
2023-03-12T19:23:06.219Z,4.40
2023-03-12T19:25:35.096Z,5.70
2023-03-12T19:28:07.049Z,5.10
2023-03-12T19:30:35.862Z,5.10
2023-03-12T19:33:05.549Z,4.50
2023-03-12T19:35:37.039Z,4.90
2023-03-12T19:38:06.351Z,5.40
2023-03-12T19:40:35.524Z,5.20
2023-03-12T19:43:05.530Z,5.00
2023-03-12T19:45:37.517Z,5.50
2023-03-12T19:48:07.769Z,4.30
2023-03-12T19:50:36.493Z,4.60
2023-03-12T19:53:05.792Z,4.80
2023-03-12T19:55:34.668Z,4.60
2023-03-12T19:58:07.628Z,4.50
2023-03-12T20:00:38.670Z,4.40
2023-03-12T20:03:09.198Z,4.40
2023-03-12T20:05:38.395Z,4.20
2023-03-12T20:08:07.880Z,4.40
2023-03-12T20:10:36.668Z,4.10
2023-03-12T20:13:06.915Z,4.80
2023-03-12T20:15:37.032Z,4.70
2023-03-12T20:18:06.259Z,4.20
2023-03-12T20:20:35.108Z,4.70
2023-03-12T20:23:04.846Z,4.80
2023-03-12T20:25:33.673Z,6.10
2023-03-12T20:28:03.310Z,6.30
2023-03-12T20:30:32.278Z,7.30
2023-03-12T20:33:05.255Z,8.20
2023-03-12T20:35:34.116Z,8.00
2023-03-12T20:38:05.163Z,8.70
2023-03-12T20:40:33.876Z,11.70
2023-03-12T20:43:04.448Z,19.70
2023-03-12T20:45:34.179Z,19.30
2023-03-12T20:48:06.306Z,18.10
2023-03-12T20:50:38.874Z,17.40
2023-03-12T20:53:08.843Z,16.90
2023-03-12T20:55:39.177Z,17.90
2023-03-12T20:58:08.324Z,15.80
2023-03-12T21:00:37.078Z,15.30
2023-03-12T21:03:06.040Z,15.20
2023-03-12T21:05:34.789Z,14.80
2023-03-12T21:08:07.044Z,15.40
2023-03-12T21:10:37.479Z,14.90
2023-03-12T21:13:07.673Z,16.00
2023-03-12T21:15:37.881Z,14.00
2023-03-12T21:18:06.814Z,14.00
2023-03-12T21:20:38.073Z,16.20
2023-03-12T21:23:07.411Z,13.30
2023-03-12T21:25:37.496Z,16.20
2023-03-12T21:28:07.931Z,20.10
2023-03-12T21:30:36.938Z,15.20
2023-03-12T21:33:06.918Z,17.00
2023-03-12T21:35:35.682Z,16.10
2023-03-12T21:38:05.976Z,14.60
2023-03-12T21:40:35.749Z,13.20
2023-03-12T21:43:05.585Z,13.90
2023-03-12T21:45:34.752Z,13.00
2023-03-12T21:48:05.080Z,13.10
2023-03-12T21:50:33.819Z,12.70
2023-03-12T21:53:21.236Z,14.00
2023-03-12T21:55:56.544Z,17.00
2023-03-12T21:58:25.831Z,17.90
2023-03-12T22:01:08.764Z,17.00
2023-03-12T22:03:38.770Z,13.60
2023-03-12T22:06:08.188Z,18.30
2023-03-12T22:08:38.036Z,19.40
2023-03-12T22:11:08.077Z,20.80
2023-03-12T22:13:37.460Z,19.80
2023-03-12T22:16:11.437Z,14.70
2023-03-12T22:18:42.106Z,13.10
2023-03-12T22:21:16.017Z,12.30
2023-03-12T22:23:47.616Z,12.20
2023-03-12T22:26:16.989Z,14.60
2023-03-12T22:28:50.098Z,12.70
2023-03-12T22:31:20.633Z,12.10
2023-03-12T22:33:49.950Z,10.90
2023-03-12T22:36:19.660Z,10.50
2023-03-12T22:38:49.062Z,10.70
2023-03-12T22:41:20.442Z,10.30
2023-03-12T22:43:50.532Z,8.10
2023-03-12T22:46:20.818Z,10.00
2023-03-12T22:48:54.136Z,8.10
2023-03-12T22:51:23.236Z,9.40
2023-03-12T22:53:52.304Z,9.70
2023-03-12T22:56:21.778Z,11.10
2023-03-12T22:58:50.644Z,10.70
2023-03-12T23:01:22.126Z,9.30
2023-03-12T23:03:52.500Z,8.80
2023-03-12T23:06:23.183Z,9.10
2023-03-12T23:08:54.376Z,8.80
2023-03-12T23:11:24.962Z,8.80
2023-03-12T23:13:54.278Z,7.90
2023-03-12T23:16:25.498Z,7.50
2023-03-12T23:18:55.674Z,7.00
2023-03-12T23:21:24.855Z,7.50
2023-03-12T23:23:54.175Z,7.50
2023-03-12T23:26:26.129Z,7.00
2023-03-12T23:28:55.469Z,7.80
2023-03-12T23:31:26.629Z,7.60
2023-03-12T23:33:59.021Z,7.30
2023-03-12T23:36:27.857Z,7.00
2023-03-12T23:38:57.866Z,7.60
2023-03-12T23:41:29.206Z,8.30
2023-03-12T23:43:59.974Z,7.50
2023-03-12T23:46:29.006Z,7.00
2023-03-12T23:48:58.214Z,7.20
2023-03-12T23:51:28.081Z,7.20
2023-03-12T23:53:58.870Z,6.60
2023-03-12T23:56:32.909Z,6.50
2023-03-12T23:59:04.013Z,6.30
